ULX weather

Ulusaba Airport
Ulusaba, Limpopo, South Africa

Public forecast

Using degrees Celsius for public forecast. Weather courtesy of forecast.io.

METAR (pilot weather report)

Closest report is Hoedspruit Air Force Base Airport, 30.1 nm (55.7 km) NW. Retrieved 2019/07/18 14:00 UTC (54 minutes ago):

FAHS 181400Z AUTO 29002KT //// // ////// 28/M05 Q1019

TAF (pilot weather forecast)

Forecast is more than 12 hours old.

Closest forecast is Hoedspruit Air Force Base Airport, 30.1 nm (55.7 km) NW. Retrieved 2017/05/23 04:01 UTC (2 years ago):

TAF FAHS 230300Z 2304/2315 VRB02KT CAVOK TX29/2312ZTN12/2304Z